Time;durP1;ratioP1;P1;durP2;ratioP2;P2;SDS_P1;SDS_P2;PMS_P1;PMS_P2;Temp;Humidity;BMP_temperature;BMP_pressure;BME280_temperature;BME280_humidity;BME280_pressure;Samples;Min_cycle;Max_cycle;Signal;HPM_P1;HPM_P2
2023/03/07 00:02:15;;;;;;;12.90;12.00;;;;;;;;;;5065599;28;20036;-52
2023/03/07 00:04:45;;;;;;;12.57;11.73;;;;;;;;;;5066151;28;20622;-54
2023/03/07 00:07:10;;;;;;;12.20;11.40;;;;;;;;;;5066410;28;20085;-50
2023/03/07 00:09:36;;;;;;;12.82;11.82;;;;;;;;;;5063265;28;20080;-53
2023/03/07 00:12:01;;;;;;;13.70;12.70;;;;;;;;;;5065998;28;20052;-53
2023/03/07 00:14:27;;;;;;;12.40;11.60;;;;;;;;;;5063809;28;20032;-52
2023/03/07 00:16:52;;;;;;;13.63;12.63;;;;;;;;;;5065553;28;20052;-54
2023/03/07 00:19:17;;;;;;;12.18;11.27;;;;;;;;;;5064560;28;20039;-53
2023/03/07 00:21:43;;;;;;;13.90;12.43;;;;;;;;;;5063746;28;20042;-53
2023/03/07 00:24:09;;;;;;;12.50;11.70;;;;;;;;;;5063736;28;20047;-50
2023/03/07 00:26:38;;;;;;;14.00;12.77;;;;;;;;;;5064719;28;20127;-52
2023/03/07 00:29:05;;;;;;;14.23;13.13;;;;;;;;;;5064190;28;20529;-54
2023/03/07 00:31:30;;;;;;;13.02;12.02;;;;;;;;;;5065348;28;20098;-54
2023/03/07 00:33:56;;;;;;;13.18;12.27;;;;;;;;;;5064670;28;20036;-53
2023/03/07 00:36:22;;;;;;;13.75;12.63;;;;;;;;;;5065570;28;20056;-50
2023/03/07 00:38:48;;;;;;;12.85;11.93;;;;;;;;;;5065956;28;20405;-50
2023/03/07 00:41:18;;;;;;;12.75;11.88;;;;;;;;;;5065743;28;20051;-52
2023/03/07 00:43:45;;;;;;;13.30;12.30;;;;;;;;;;5064975;28;20101;-52
2023/03/07 00:46:12;;;;;;;14.63;13.52;;;;;;;;;;5064050;28;20120;-54
2023/03/07 00:48:38;;;;;;;12.35;11.55;;;;;;;;;;5065216;28;20111;-51
2023/03/07 00:51:06;;;;;;;13.27;12.38;;;;;;;;;;5065291;28;20035;-53
2023/03/07 00:53:32;;;;;;;13.52;12.52;;;;;;;;;;5062822;28;20024;-51
2023/03/07 00:56:03;;;;;;;13.18;12.00;;;;;;;;;;5063431;28;20097;-52
2023/03/07 00:58:30;;;;;;;13.80;12.73;;;;;;;;;;5064186;28;20492;-50
2023/03/07 01:00:56;;;;;;;12.65;11.85;;;;;;;;;;5064775;28;20480;-52
2023/03/07 01:03:22;;;;;;;13.38;12.30;;;;;;;;;;5065676;28;20020;-54
2023/03/07 01:05:47;;;;;;;13.07;12.05;;;;;;;;;;5065143;28;20028;-52
2023/03/07 01:08:14;;;;;;;13.30;12.20;;;;;;;;;;5061157;28;20377;-51
2023/03/07 01:10:39;;;;;;;13.48;12.57;;;;;;;;;;5060224;28;20032;-52
2023/03/07 01:13:05;;;;;;;12.57;11.68;;;;;;;;;;5063907;28;20027;-52
2023/03/07 01:15:30;;;;;;;15.25;13.77;;;;;;;;;;5063369;28;20059;-49
2023/03/07 01:17:56;;;;;;;13.48;12.43;;;;;;;;;;5062960;28;20102;-48
2023/03/07 01:20:21;;;;;;;14.98;13.88;;;;;;;;;;5065324;28;20078;-51
2023/03/07 01:22:47;;;;;;;12.98;11.85;;;;;;;;;;5064384;28;20112;-48
2023/03/07 01:25:12;;;;;;;13.73;12.70;;;;;;;;;;5064786;28;20144;-48
2023/03/07 01:27:38;;;;;;;15.13;13.80;;;;;;;;;;5063698;28;20059;-48
2023/03/07 01:30:06;;;;;;;12.60;11.60;;;;;;;;;;5063730;28;20047;-49
2023/03/07 01:32:31;;;;;;;19.63;14.55;;;;;;;;;;5060656;28;22525;-49
2023/03/07 01:34:57;;;;;;;13.38;12.32;;;;;;;;;;5064336;28;20040;-51
2023/03/07 01:37:22;;;;;;;13.13;12.23;;;;;;;;;;5064161;28;20529;-50
2023/03/07 01:39:52;;;;;;;14.90;13.80;;;;;;;;;;5061707;28;20043;-49
2023/03/07 01:42:18;;;;;;;14.30;13.15;;;;;;;;;;5064239;28;20029;-51
2023/03/07 01:45:00;;;;;;;16.25;14.63;;;;;;;;;;5064262;28;20032;-50
2023/03/07 01:47:25;;;;;;;13.68;12.65;;;;;;;;;;5064089;28;20036;-50
2023/03/07 01:49:51;;;;;;;15.13;13.68;;;;;;;;;;5063775;28;20037;-49
2023/03/07 01:52:19;;;;;;;14.35;12.95;;;;;;;;;;5061086;28;20040;-51
2023/03/07 01:54:49;;;;;;;14.65;13.52;;;;;;;;;;5059776;28;20605;-51
2023/03/07 01:57:20;;;;;;;14.27;13.25;;;;;;;;;;5058833;28;20097;-52
2023/03/07 01:59:47;;;;;;;;;;;;;;;;;;5065173;28;20036;-50
2023/03/07 02:02:16;;;;;;;13.57;12.63;;;;;;;;;;5063076;28;19927;-53
2023/03/07 02:04:51;;;;;;;12.90;12.10;;;;;;;;;;5063543;28;20097;-49
2023/03/07 02:07:20;;;;;;;14.05;13.05;;;;;;;;;;5062385;28;20229;-50
2023/03/07 02:09:47;;;;;;;14.75;13.75;;;;;;;;;;5063582;28;20461;-51
2023/03/07 02:12:13;;;;;;;12.70;11.90;;;;;;;;;;5063354;28;20098;-52
2023/03/07 02:14:42;;;;;;;14.50;13.52;;;;;;;;;;5063750;28;20477;-51
2023/03/07 02:17:08;;;;;;;14.40;13.50;;;;;;;;;;5063639;28;20048;-49
2023/03/07 02:20:04;;;;;;;14.43;13.43;;;;;;;;;;5061436;28;20100;-52
2023/03/07 02:22:29;;;;;;;14.52;13.57;;;;;;;;;;5035433;28;20080;-51
2023/03/07 02:25:01;;;;;;;13.98;13.05;;;;;;;;;;5063860;28;20116;-52
2023/03/07 02:27:27;;;;;;;;;;;;;;;;;;5063480;28;20044;-51
2023/03/07 02:29:53;;;;;;;14.95;13.90;;;;;;;;;;5062675;28;20001;-51
2023/03/07 02:32:18;;;;;;;14.02;13.02;;;;;;;;;;5058634;28;20032;-48
2023/03/07 02:34:44;;;;;;;13.98;12.85;;;;;;;;;;5062509;28;20028;-53
2023/03/07 02:37:15;;;;;;;14.73;13.63;;;;;;;;;;5061152;28;20036;-53
2023/03/07 02:39:42;;;;;;;16.80;15.60;;;;;;;;;;5060871;28;20032;-50
2023/03/07 02:42:13;;;;;;;14.38;13.48;;;;;;;;;;5061247;28;20116;-53
2023/03/07 02:44:38;;;;;;;14.48;13.48;;;;;;;;;;5063515;28;20032;-51
2023/03/07 02:47:07;;;;;;;14.02;13.02;;;;;;;;;;5063164;28;20365;-52
2023/03/07 02:49:33;;;;;;;13.55;12.75;;;;;;;;;;5063190;28;20409;-52
2023/03/07 02:51:59;;;;;;;14.95;13.95;;;;;;;;;;5063756;28;20029;-51
2023/03/07 02:54:25;;;;;;;14.98;13.90;;;;;;;;;;5062945;28;20331;-51
2023/03/07 02:56:52;;;;;;;13.90;12.95;;;;;;;;;;5060904;28;20893;-52
2023/03/07 02:59:17;;;;;;;15.20;14.27;;;;;;;;;;5063367;28;20041;-49
2023/03/07 03:01:42;;;;;;;14.27;13.32;;;;;;;;;;5064049;28;20404;-53
2023/03/07 03:04:08;;;;;;;14.10;13.10;;;;;;;;;;5063329;28;20036;-53
2023/03/07 03:06:33;;;;;;;15.10;14.02;;;;;;;;;;5061519;28;20033;-52
2023/03/07 03:08:58;;;;;;;14.85;13.57;;;;;;;;;;5066752;28;20050;-52
2023/03/07 03:11:24;;;;;;;12.43;11.63;;;;;;;;;;5065973;28;20475;-50
2023/03/07 03:13:49;;;;;;;13.57;12.60;;;;;;;;;;5067881;28;20024;-53
2023/03/07 03:16:16;;;;;;;13.02;12.23;;;;;;;;;;5066734;28;20059;-54
2023/03/07 03:18:41;;;;;;;14.02;13.05;;;;;;;;;;5065021;28;20289;-54
2023/03/07 03:21:10;;;;;;;13.70;12.80;;;;;;;;;;5065467;28;20500;-51
2023/03/07 03:23:36;;;;;;;14.13;13.10;;;;;;;;;;5064516;28;20144;-50
2023/03/07 03:26:06;;;;;;;13.73;12.82;;;;;;;;;;5064904;28;20135;-53
2023/03/07 03:28:33;;;;;;;12.75;11.95;;;;;;;;;;5062159;28;20398;-53
2023/03/07 03:31:01;;;;;;;12.73;11.93;;;;;;;;;;5063747;28;20322;-53
2023/03/07 03:33:28;;;;;;;13.45;12.55;;;;;;;;;;5063651;28;20040;-50
2023/03/07 03:35:58;;;;;;;13.27;12.38;;;;;;;;;;5064416;28;20041;-50
2023/03/07 03:38:24;;;;;;;13.65;12.75;;;;;;;;;;5064041;28;20098;-53
2023/03/07 03:40:50;;;;;;;13.07;12.18;;;;;;;;;;5066011;28;20028;-52
2023/03/07 03:43:15;;;;;;;13.77;12.88;;;;;;;;;;5063917;28;20040;-53
2023/03/07 03:45:41;;;;;;;12.77;11.85;;;;;;;;;;5064984;28;20032;-50
2023/03/07 03:48:07;;;;;;;12.05;11.25;;;;;;;;;;5063427;28;20028;-52
2023/03/07 03:50:32;;;;;;;12.40;11.45;;;;;;;;;;5063898;28;20097;-52
2023/03/07 03:52:59;;;;;;;13.05;12.20;;;;;;;;;;5063764;28;20033;-51
2023/03/07 03:55:24;;;;;;;13.57;12.60;;;;;;;;;;5063781;28;20040;-53
2023/03/07 03:57:50;;;;;;;14.88;12.80;;;;;;;;;;5061754;28;20059;-49
2023/03/07 04:00:18;;;;;;;12.65;11.82;;;;;;;;;;5065871;28;20098;-51
2023/03/07 04:02:44;;;;;;;11.68;10.98;;;;;;;;;;5066160;28;20036;-49
2023/03/07 04:05:10;;;;;;;12.13;11.32;;;;;;;;;;5066644;28;20533;-49
2023/03/07 04:07:35;;;;;;;12.68;11.82;;;;;;;;;;5064253;28;20047;-53
2023/03/07 04:10:01;;;;;;;13.10;12.30;;;;;;;;;;5067169;28;20124;-53
2023/03/07 04:12:26;;;;;;;12.80;11.98;;;;;;;;;;5065965;28;20502;-51
2023/03/07 04:14:51;;;;;;;14.57;13.68;;;;;;;;;;5065637;28;20390;-54
2023/03/07 04:17:16;;;;;;;13.63;12.73;;;;;;;;;;5065593;28;20087;-50
2023/03/07 04:19:42;;;;;;;11.80;11.07;;;;;;;;;;5060540;28;20559;-50
2023/03/07 04:22:07;;;;;;;13.63;12.73;;;;;;;;;;5062871;28;20419;-52
2023/03/07 04:24:33;;;;;;;12.77;11.98;;;;;;;;;;5061938;28;20660;-49
2023/03/07 04:26:58;;;;;;;13.82;12.60;;;;;;;;;;5064015;28;20056;-51
2023/03/07 04:29:23;;;;;;;12.35;11.55;;;;;;;;;;5062719;28;20032;-53
2023/03/07 04:31:49;;;;;;;12.25;11.50;;;;;;;;;;5062372;28;20037;-51
2023/03/07 04:34:14;;;;;;;14.25;13.10;;;;;;;;;;5065258;28;20060;-49
2023/03/07 04:36:39;;;;;;;12.60;11.80;;;;;;;;;;5061031;28;20032;-51
2023/03/07 04:39:05;;;;;;;12.40;11.60;;;;;;;;;;5063254;28;20033;-52
2023/03/07 04:41:32;;;;;;;13.50;12.60;;;;;;;;;;5060254;28;20463;-50
2023/03/07 04:43:57;;;;;;;13.40;12.57;;;;;;;;;;5062174;28;20496;-51
2023/03/07 04:46:23;;;;;;;12.90;12.10;;;;;;;;;;5062142;28;20131;-49
2023/03/07 04:48:49;;;;;;;14.25;13.35;;;;;;;;;;5059594;28;20185;-52
2023/03/07 04:51:14;;;;;;;13.32;12.52;;;;;;;;;;5063061;28;20040;-51
2023/03/07 04:53:40;;;;;;;14.70;13.60;;;;;;;;;;5060852;28;20523;-50
2023/03/07 04:56:07;;;;;;;13.68;12.77;;;;;;;;;;5063911;28;20036;-51
2023/03/07 04:58:33;;;;;;;14.32;13.43;;;;;;;;;;5055774;28;20032;-50
2023/03/07 05:01:00;;;;;;;15.07;14.02;;;;;;;;;;5065618;28;20047;-50
2023/03/07 05:03:27;;;;;;;14.85;13.95;;;;;;;;;;5061335;28;20098;-52
2023/03/07 05:05:53;;;;;;;13.43;12.52;;;;;;;;;;5065574;28;20102;-52
2023/03/07 05:08:18;;;;;;;13.63;12.73;;;;;;;;;;5064868;28;20351;-52
2023/03/07 05:10:44;;;;;;;12.88;11.98;;;;;;;;;;5066465;28;20093;-50
2023/03/07 05:13:10;;;;;;;14.38;13.45;;;;;;;;;;5064988;28;20556;-50
2023/03/07 05:15:35;;;;;;;14.32;13.25;;;;;;;;;;5061915;28;20252;-53
2023/03/07 05:18:01;;;;;;;14.05;13.05;;;;;;;;;;5065560;28;20039;-53
2023/03/07 05:20:28;;;;;;;13.40;12.50;;;;;;;;;;5062877;28;20041;-50
2023/03/07 05:22:55;;;;;;;13.20;12.32;;;;;;;;;;5063512;28;20504;-53
2023/03/07 05:25:21;;;;;;;13.68;12.68;;;;;;;;;;5062181;28;20089;-49
2023/03/07 05:27:47;;;;;;;14.00;13.07;;;;;;;;;;5058406;28;20346;-53
2023/03/07 05:30:13;;;;;;;14.25;13.25;;;;;;;;;;5064808;28;20032;-52
2023/03/07 05:32:38;;;;;;;13.88;12.95;;;;;;;;;;5061487;28;20605;-49
2023/03/07 05:35:04;;;;;;;12.98;12.07;;;;;;;;;;5061805;28;20032;-53
2023/03/07 05:37:29;;;;;;;13.40;12.57;;;;;;;;;;5061724;28;20035;-52
2023/03/07 05:39:54;;;;;;;14.00;13.07;;;;;;;;;;5064418;28;20032;-52
2023/03/07 05:42:20;;;;;;;16.35;14.80;;;;;;;;;;5062104;28;20084;-51
2023/03/07 05:44:45;;;;;;;13.30;12.27;;;;;;;;;;5063281;28;20060;-50
2023/03/07 05:47:11;;;;;;;14.85;13.77;;;;;;;;;;5061933;28;20378;-52
2023/03/07 05:49:36;;;;;;;13.15;12.27;;;;;;;;;;5062300;28;20375;-53
2023/03/07 05:52:01;;;;;;;13.73;12.82;;;;;;;;;;5061203;28;20600;-49
2023/03/07 05:54:27;;;;;;;14.10;13.18;;;;;;;;;;5060914;28;20496;-52
2023/03/07 05:56:52;;;;;;;12.90;11.98;;;;;;;;;;5060881;28;20103;-53
2023/03/07 05:59:18;;;;;;;14.10;13.10;;;;;;;;;;5057961;28;20048;-53
2023/03/07 06:01:43;;;;;;;13.30;12.25;;;;;;;;;;5060099;28;20067;-53
2023/03/07 06:04:09;;;;;;;12.73;11.80;;;;;;;;;;5060396;28;20462;-52
2023/03/07 06:06:34;;;;;;;14.82;13.75;;;;;;;;;;5059278;28;20051;-50
2023/03/07 06:08:59;;;;;;;13.85;12.82;;;;;;;;;;5062611;28;20115;-52
2023/03/07 06:11:25;;;;;;;13.95;12.88;;;;;;;;;;5059697;28;20036;-52
2023/03/07 06:13:50;;;;;;;14.18;13.18;;;;;;;;;;5061930;28;20024;-51
2023/03/07 06:16:16;;;;;;;13.85;12.95;;;;;;;;;;5062109;28;20041;-51
2023/03/07 06:18:41;;;;;;;13.43;12.52;;;;;;;;;;5058197;28;20025;-47
2023/03/07 06:21:08;;;;;;;14.68;13.68;;;;;;;;;;5061256;28;20047;-50
2023/03/07 06:23:35;;;;;;;14.32;13.40;;;;;;;;;;5061596;28;20056;-51
2023/03/07 06:26:02;;;;;;;14.15;13.25;;;;;;;;;;5060226;28;20115;-51
2023/03/07 06:28:28;;;;;;;13.02;12.02;;;;;;;;;;5062390;28;20090;-53
2023/03/07 06:30:53;;;;;;;14.00;12.80;;;;;;;;;;5061962;28;20024;-56
2023/03/07 06:33:19;;;;;;;13.95;13.05;;;;;;;;;;5060432;28;20539;-53
2023/03/07 06:35:44;;;;;;;14.45;13.02;;;;;;;;;;5057203;28;20792;-52
2023/03/07 06:38:13;;;;;;;13.10;12.18;;;;;;;;;;5059816;28;20040;-52
2023/03/07 06:40:38;;;;;;;14.63;13.60;;;;;;;;;;5059523;28;20601;-50
2023/03/07 06:43:04;;;;;;;15.40;13.95;;;;;;;;;;5063000;28;20040;-51
2023/03/07 06:45:29;;;;;;;14.25;13.15;;;;;;;;;;5064139;28;20028;-50
2023/03/07 06:47:55;;;;;;;13.45;12.52;;;;;;;;;;5063658;28;20029;-52
2023/03/07 06:50:21;;;;;;;13.93;13.02;;;;;;;;;;5064751;28;20040;-50
2023/03/07 06:52:48;;;;;;;13.77;12.93;;;;;;;;;;5065407;28;20036;-54
2023/03/07 06:55:14;;;;;;;15.23;14.18;;;;;;;;;;5064745;28;20036;-54
2023/03/07 06:57:39;;;;;;;16.17;14.82;;;;;;;;;;5065449;28;20036;-52
2023/03/07 07:00:05;;;;;;;14.05;13.15;;;;;;;;;;5065198;28;20100;-53
2023/03/07 07:02:31;;;;;;;14.23;12.98;;;;;;;;;;5065112;28;20033;-52
2023/03/07 07:04:57;;;;;;;13.30;12.43;;;;;;;;;;5067263;28;20044;-53
2023/03/07 07:07:23;;;;;;;14.32;13.32;;;;;;;;;;5065557;28;20404;-54
2023/03/07 07:09:49;;;;;;;12.40;11.60;;;;;;;;;;5064927;28;20032;-52
2023/03/07 07:12:14;;;;;;;13.50;12.35;;;;;;;;;;5066874;28;20363;-49
2023/03/07 07:14:40;;;;;;;14.15;13.20;;;;;;;;;;5063300;28;20490;-50
2023/03/07 07:17:05;;;;;;;13.63;12.63;;;;;;;;;;5063144;28;20829;-50
2023/03/07 07:19:30;;;;;;;12.88;11.98;;;;;;;;;;5062811;28;20036;-50
2023/03/07 07:21:56;;;;;;;13.45;12.55;;;;;;;;;;5057779;28;20044;-51
2023/03/07 07:24:22;;;;;;;13.93;12.52;;;;;;;;;;5063712;28;20068;-50
2023/03/07 07:26:48;;;;;;;13.55;12.65;;;;;;;;;;5066605;28;20092;-54
2023/03/07 07:29:14;;;;;;;12.68;11.68;;;;;;;;;;5066471;28;20040;-51
2023/03/07 07:31:40;;;;;;;12.07;11.27;;;;;;;;;;5065771;28;20062;-49
2023/03/07 07:34:05;;;;;;;14.18;13.27;;;;;;;;;;5064100;28;20036;-50
2023/03/07 07:36:31;;;;;;;12.60;11.70;;;;;;;;;;5062715;28;20089;-52
2023/03/07 07:38:57;;;;;;;12.77;11.88;;;;;;;;;;5063821;28;20437;-50
2023/03/07 07:41:22;;;;;;;11.20;10.40;;;;;;;;;;5062911;28;20032;-51
2023/03/07 07:43:51;;;;;;;13.18;12.18;;;;;;;;;;5063360;28;20738;-53
2023/03/07 07:46:16;;;;;;;12.77;11.88;;;;;;;;;;5060986;28;20045;-51
2023/03/07 07:48:41;;;;;;;12.77;11.95;;;;;;;;;;5060616;28;20039;-54
2023/03/07 07:51:07;;;;;;;12.82;12.02;;;;;;;;;;5063820;28;20036;-54
2023/03/07 07:53:33;;;;;;;12.55;11.75;;;;;;;;;;5063668;28;20028;-54
2023/03/07 07:55:58;;;;;;;12.77;11.88;;;;;;;;;;5063670;28;20086;-55
2023/03/07 07:58:24;;;;;;;14.20;13.13;;;;;;;;;;5059758;28;20097;-52
2023/03/07 08:00:49;;;;;;;15.35;14.32;;;;;;;;;;5063785;28;20044;-54
2023/03/07 08:03:15;;;;;;;13.50;12.60;;;;;;;;;;5063604;28;20048;-54
2023/03/07 08:05:47;;;;;;;15.05;14.00;;;;;;;;;;5063753;28;20043;-53
2023/03/07 08:08:14;;;;;;;15.13;14.02;;;;;;;;;;5065708;28;20044;-53
2023/03/07 08:10:41;;;;;;;13.38;12.48;;;;;;;;;;5063028;28;20556;-51
2023/03/07 08:13:08;;;;;;;13.30;12.50;;;;;;;;;;5065201;28;20035;-50
2023/03/07 08:15:33;;;;;;;13.88;12.98;;;;;;;;;;5061023;28;20548;-54
2023/03/07 08:17:59;;;;;;;12.73;11.93;;;;;;;;;;5065727;28;20036;-52
2023/03/07 08:20:24;;;;;;;14.05;13.07;;;;;;;;;;5065065;28;20044;-54
2023/03/07 08:22:51;;;;;;;13.18;12.32;;;;;;;;;;5063670;28;20477;-50
2023/03/07 08:25:22;;;;;;;12.45;11.65;;;;;;;;;;5062671;28;20047;-53
2023/03/07 08:27:51;;;;;;;12.30;11.52;;;;;;;;;;5056722;28;20043;-53
2023/03/07 08:30:18;;;;;;;12.50;11.57;;;;;;;;;;5063699;28;20032;-54
2023/03/07 08:32:43;;;;;;;13.25;12.35;;;;;;;;;;5062814;28;20036;-51
2023/03/07 08:35:09;;;;;;;13.98;12.93;;;;;;;;;;5062749;28;20032;-54
2023/03/07 08:37:34;;;;;;;11.70;10.80;;;;;;;;;;5063487;28;20029;-51
2023/03/07 08:39:59;;;;;;;11.85;11.05;;;;;;;;;;5065614;28;20730;-54
2023/03/07 08:42:25;;;;;;;12.27;11.30;;;;;;;;;;5065225;28;20440;-53
2023/03/07 08:44:50;;;;;;;13.18;12.27;;;;;;;;;;5064285;28;20832;-54
2023/03/07 08:47:15;;;;;;;12.55;11.65;;;;;;;;;;5064020;28;20032;-50
2023/03/07 08:49:41;;;;;;;11.88;11.07;;;;;;;;;;5064324;28;20028;-51
2023/03/07 08:52:06;;;;;;;11.57;10.88;;;;;;;;;;5066130;28;20090;-54
2023/03/07 08:54:32;;;;;;;11.20;10.50;;;;;;;;;;5063361;28;20028;-50
2023/03/07 08:56:58;;;;;;;12.43;11.63;;;;;;;;;;5066633;28;20124;-49
2023/03/07 08:59:23;;;;;;;12.88;11.88;;;;;;;;;;5064064;28;20028;-52
2023/03/07 09:01:49;;;;;;;12.68;11.88;;;;;;;;;;5064461;28;20529;-50
2023/03/07 09:04:14;;;;;;;12.45;11.65;;;;;;;;;;5064469;28;20474;-54
2023/03/07 09:06:40;;;;;;;12.73;11.93;;;;;;;;;;5061305;28;20082;-50
2023/03/07 09:09:05;;;;;;;12.10;11.30;;;;;;;;;;5066101;28;20048;-53
2023/03/07 09:11:30;;;;;;;10.05;9.45;;;;;;;;;;5063230;28;20135;-51
2023/03/07 09:13:56;;;;;;;10.52;9.82;;;;;;;;;;5064250;28;20032;-52
2023/03/07 09:16:22;;;;;;;11.52;10.82;;;;;;;;;;5064859;28;20097;-50
2023/03/07 09:18:47;;;;;;;12.07;11.27;;;;;;;;;;5063317;28;20045;-54
2023/03/07 09:21:13;;;;;;;12.85;11.95;;;;;;;;;;5063334;28;20041;-54
2023/03/07 09:23:38;;;;;;;11.43;10.65;;;;;;;;;;5063016;28;20111;-50
2023/03/07 09:26:04;;;;;;;12.52;11.73;;;;;;;;;;5063939;28;20492;-51
2023/03/07 09:28:30;;;;;;;11.85;11.15;;;;;;;;;;5063442;28;20067;-51
2023/03/07 09:30:55;;;;;;;10.95;10.25;;;;;;;;;;5064712;28;20074;-51
2023/03/07 09:33:21;;;;;;;11.02;10.30;;;;;;;;;;5064820;28;20056;-49
2023/03/07 09:35:46;;;;;;;10.82;10.13;;;;;;;;;;5064984;28;20040;-53
2023/03/07 09:38:12;;;;;;;11.05;10.32;;;;;;;;;;5062211;28;20051;-50
2023/03/07 09:40:38;;;;;;;10.02;9.40;;;;;;;;;;5061075;28;20044;-49
2023/03/07 09:43:15;;;;;;;10.77;10.07;;;;;;;;;;5063780;28;20024;-53
2023/03/07 09:46:03;;;;;;;10.32;9.65;;;;;;;;;;5063504;28;20033;-52
2023/03/07 09:48:46;;;;;;;12.98;11.90;;;;;;;;;;5063094;28;20070;-52
2023/03/07 09:51:23;;;;;;;12.95;12.05;;;;;;;;;;5064582;28;20373;-52
2023/03/07 09:54:24;;;;;;;11.40;10.68;;;;;;;;;;5063819;28;20328;-51
2023/03/07 09:56:56;;;;;;;10.93;10.20;;;;;;;;;;5048712;28;20123;-50
2023/03/07 09:59:34;;;;;;;11.27;10.52;;;;;;;;;;5064417;28;20277;-53
2023/03/07 10:02:45;;;;;;;10.57;9.88;;;;;;;;;;5061780;28;20070;-53
2023/03/07 10:05:58;;;;;;;10.90;10.20;;;;;;;;;;5062019;28;20029;-53
2023/03/07 10:08:28;;;;;;;10.32;9.68;;;;;;;;;;5027229;28;20376;-54
2023/03/07 10:11:13;;;;;;;11.40;10.63;;;;;;;;;;5063212;28;20090;-54
2023/03/07 10:13:47;;;;;;;11.80;10.93;;;;;;;;;;5059853;28;20628;-52
2023/03/07 10:16:54;;;;;;;10.82;10.13;;;;;;;;;;5059682;28;20032;-53
2023/03/07 10:19:39;;;;;;;11.27;10.57;;;;;;;;;;5059845;28;20488;-52
2023/03/07 10:22:11;;;;;;;11.82;11.02;;;;;;;;;;5061299;28;20032;-54
2023/03/07 10:25:05;;;;;;;11.15;10.45;;;;;;;;;;5057668;28;20052;-52
2023/03/07 10:27:30;;;;;;;11.13;10.43;;;;;;;;;;5061733;28;20515;-50
2023/03/07 10:29:59;;;;;;;12.32;11.18;;;;;;;;;;5060034;28;20036;-53
2023/03/07 10:32:39;;;;;;;11.90;11.07;;;;;;;;;;5059642;28;20496;-50
2023/03/07 10:35:11;;;;;;;12.20;11.40;;;;;;;;;;5057838;28;20028;-53
2023/03/07 10:37:58;;;;;;;10.88;10.15;;;;;;;;;;5059873;28;20093;-51
2023/03/07 10:40:52;;;;;;;11.27;10.57;;;;;;;;;;5061349;28;20063;-50
2023/03/07 10:43:28;;;;;;;11.80;11.10;;;;;;;;;;5041981;28;20051;-50
2023/03/07 10:46:19;;;;;;;12.05;11.35;;;;;;;;;;5056676;28;20032;-49
2023/03/07 10:48:52;;;;;;;12.10;11.20;;;;;;;;;;5059973;28;20327;-52
2023/03/07 10:51:49;;;;;;;11.80;10.98;;;;;;;;;;5050718;28;20132;-53
2023/03/07 10:54:19;;;;;;;12.38;11.57;;;;;;;;;;5059249;28;20106;-55
2023/03/07 10:57:15;;;;;;;13.00;11.95;;;;;;;;;;5059901;28;20040;-54
2023/03/07 10:59:48;;;;;;;12.10;11.30;;;;;;;;;;5059797;28;20174;-50
2023/03/07 11:02:29;;;;;;;12.50;11.70;;;;;;;;;;5061276;28;20107;-55
2023/03/07 11:04:54;;;;;;;13.02;12.23;;;;;;;;;;5060247;28;20060;-53
2023/03/07 11:07:35;;;;;;;12.60;11.52;;;;;;;;;;5060612;28;20055;-53
2023/03/07 11:10:21;;;;;;;12.80;12.00;;;;;;;;;;5059438;28;20059;-53
2023/03/07 11:12:47;;;;;;;11.70;10.80;;;;;;;;;;5060301;28;20082;-52
2023/03/07 11:15:22;;;;;;;10.82;10.15;;;;;;;;;;5053459;28;20405;-52
2023/03/07 11:17:48;;;;;;;11.65;10.95;;;;;;;;;;5054302;28;20040;-55
2023/03/07 11:20:24;;;;;;;12.43;11.63;;;;;;;;;;5059165;28;20518;-55
2023/03/07 11:23:15;;;;;;;11.23;10.52;;;;;;;;;;5059234;28;20033;-55
2023/03/07 11:25:41;;;;;;;11.13;10.43;;;;;;;;;;5057156;28;20032;-55
2023/03/07 11:28:31;;;;;;;10.70;10.00;;;;;;;;;;5062211;28;20032;-53
2023/03/07 11:31:07;;;;;;;12.05;11.05;;;;;;;;;;5066051;28;20603;-55
2023/03/07 11:33:35;;;;;;;11.95;11.25;;;;;;;;;;5057885;28;20051;-54
2023/03/07 11:36:04;;;;;;;11.18;10.48;;;;;;;;;;5064766;28;20033;-55
2023/03/07 11:38:49;;;;;;;12.38;11.55;;;;;;;;;;5062210;28;20036;-54
2023/03/07 11:41:35;;;;;;;11.57;10.88;;;;;;;;;;5065581;28;20063;-53
2023/03/07 11:44:18;;;;;;;12.35;11.55;;;;;;;;;;5062289;28;20038;-55
2023/03/07 11:47:07;;;;;;;12.63;11.77;;;;;;;;;;5058578;28;20047;-54
2023/03/07 11:50:12;;;;;;;11.55;10.85;;;;;;;;;;5060529;28;20119;-53
2023/03/07 11:53:01;;;;;;;14.25;12.95;;;;;;;;;;5064893;28;20111;-52
2023/03/07 11:55:30;;;;;;;11.90;11.20;;;;;;;;;;5062586;28;20042;-54
2023/03/07 11:58:01;;;;;;;12.38;11.57;;;;;;;;;;5065296;28;20044;-56
2023/03/07 12:00:42;;;;;;;12.20;11.48;;;;;;;;;;5066412;28;20060;-54
2023/03/07 12:03:41;;;;;;;11.45;10.75;;;;;;;;;;5062898;28;20610;-55
2023/03/07 12:06:19;;;;;;;11.73;11.02;;;;;;;;;;5076154;28;20044;-55
2023/03/07 12:09:07;;;;;;;11.88;11.07;;;;;;;;;;5064000;28;20078;-52
2023/03/07 12:11:59;;;;;;;13.18;12.27;;;;;;;;;;5055116;28;20062;-53
2023/03/07 12:14:43;;;;;;;11.63;10.93;;;;;;;;;;5070416;28;20025;-53
2023/03/07 12:17:26;;;;;;;12.05;11.27;;;;;;;;;;5059474;28;20725;-56
2023/03/07 12:20:17;;;;;;;10.95;10.25;;;;;;;;;;5061688;28;20032;-53
2023/03/07 12:23:04;;;;;;;12.90;12.10;;;;;;;;;;5061318;28;20040;-55
2023/03/07 12:25:42;;;;;;;10.75;10.02;;;;;;;;;;5063172;28;20047;-53
2023/03/07 12:28:20;;;;;;;10.82;10.02;;;;;;;;;;5056361;28;20093;-55
2023/03/07 12:31:10;;;;;;;12.27;11.48;;;;;;;;;;5057579;28;20047;-53
2023/03/07 12:33:47;;;;;;;12.20;11.35;;;;;;;;;;5057815;28;20039;-55
2023/03/07 12:36:23;;;;;;;11.48;10.50;;;;;;;;;;5058566;28;20039;-52
2023/03/07 12:39:00;;;;;;;12.00;11.20;;;;;;;;;;5058362;28;20043;-55
2023/03/07 12:41:37;;;;;;;11.27;10.57;;;;;;;;;;5059222;28;20075;-54
2023/03/07 12:44:10;;;;;;;12.23;11.43;;;;;;;;;;5059275;28;20470;-53
2023/03/07 12:46:43;;;;;;;11.90;11.10;;;;;;;;;;5058596;28;20529;-54
2023/03/07 12:49:14;;;;;;;12.40;11.50;;;;;;;;;;5060610;28;20033;-52
2023/03/07 12:51:48;;;;;;;12.07;11.38;;;;;;;;;;5059669;28;20537;-54
2023/03/07 12:54:35;;;;;;;12.75;11.85;;;;;;;;;;5059281;28;20658;-54
2023/03/07 12:57:24;;;;;;;11.77;11.07;;;;;;;;;;5056139;28;20033;-52
2023/03/07 12:59:50;;;;;;;11.70;11.00;;;;;;;;;;5059710;28;20021;-55
2023/03/07 13:02:23;;;;;;;10.50;9.80;;;;;;;;;;5059334;28;20106;-54
2023/03/07 13:04:48;;;;;;;11.55;10.63;;;;;;;;;;5058567;28;20070;-54
2023/03/07 13:07:19;;;;;;;12.70;11.90;;;;;;;;;;5058867;28;20047;-54
2023/03/07 13:09:47;;;;;;;13.07;12.02;;;;;;;;;;5059285;28;20068;-54
2023/03/07 13:12:14;;;;;;;12.45;11.35;;;;;;;;;;5061776;28;20032;-54
2023/03/07 13:15:16;;;;;;;12.43;11.27;;;;;;;;;;5058241;28;20472;-54
2023/03/07 13:17:42;;;;;;;12.02;11.32;;;;;;;;;;5023625;28;20258;-54
2023/03/07 13:20:26;;;;;;;12.55;11.75;;;;;;;;;;5056795;28;20102;-56
2023/03/07 13:22:52;;;;;;;11.98;11.27;;;;;;;;;;5061226;28;20066;-55
2023/03/07 13:25:34;;;;;;;11.68;10.88;;;;;;;;;;5057757;28;20795;-58
2023/03/07 13:28:01;;;;;;;13.38;12.38;;;;;;;;;;5058361;28;20111;-55
2023/03/07 13:30:31;;;;;;;12.15;11.25;;;;;;;;;;5060542;28;20032;-55
2023/03/07 13:33:00;;;;;;;12.25;11.35;;;;;;;;;;5059423;28;20639;-52
2023/03/07 13:35:32;;;;;;;11.07;10.38;;;;;;;;;;5060957;28;20527;-55
2023/03/07 13:37:58;;;;;;;12.45;11.50;;;;;;;;;;5058724;28;20033;-54
2023/03/07 13:40:43;;;;;;;11.32;10.63;;;;;;;;;;5059167;28;20047;-51
2023/03/07 13:43:21;;;;;;;12.07;11.30;;;;;;;;;;5053225;28;20072;-53
2023/03/07 13:45:46;;;;;;;12.52;11.63;;;;;;;;;;5058440;28;20036;-50
2023/03/07 13:48:27;;;;;;;11.73;10.95;;;;;;;;;;5058434;28;20062;-51
2023/03/07 13:50:53;;;;;;;12.00;11.27;;;;;;;;;;5059991;28;20462;-55
2023/03/07 13:53:19;;;;;;;12.20;11.40;;;;;;;;;;5062216;28;20254;-50
2023/03/07 13:55:51;;;;;;;11.45;10.75;;;;;;;;;;5060477;28;20121;-55
2023/03/07 13:58:19;;;;;;;12.63;11.73;;;;;;;;;;5061041;28;20430;-55
2023/03/07 14:00:56;;;;;;;11.65;10.90;;;;;;;;;;5064229;28;20044;-55
2023/03/07 14:03:29;;;;;;;12.02;11.25;;;;;;;;;;5061968;28;20142;-55
2023/03/07 14:06:00;;;;;;;12.52;11.73;;;;;;;;;;5060701;28;20378;-53
2023/03/07 14:08:32;;;;;;;11.90;11.18;;;;;;;;;;5054827;28;20247;-53
2023/03/07 14:10:58;;;;;;;12.85;11.98;;;;;;;;;;5058914;28;20119;-53
2023/03/07 14:14:01;;;;;;;11.90;11.20;;;;;;;;;;5056982;28;20024;-53
2023/03/07 14:16:38;;;;;;;10.60;9.90;;;;;;;;;;5063083;28;20489;-52
2023/03/07 14:19:15;;;;;;;11.30;10.55;;;;;;;;;;5061447;28;20082;-54
2023/03/07 14:22:11;;;;;;;11.65;10.95;;;;;;;;;;5062201;28;20130;-53
2023/03/07 14:24:37;;;;;;;12.23;11.05;;;;;;;;;;5037519;28;20059;-54
2023/03/07 14:27:04;;;;;;;12.40;11.60;;;;;;;;;;5058916;28;20437;-55
2023/03/07 14:29:30;;;;;;;11.40;10.70;;;;;;;;;;5062944;28;20106;-51
2023/03/07 14:31:58;;;;;;;13.13;12.32;;;;;;;;;;5062834;28;20057;-55
2023/03/07 14:34:23;;;;;;;12.75;11.88;;;;;;;;;;5063388;28;20032;-53
2023/03/07 14:37:04;;;;;;;12.95;12.13;;;;;;;;;;5060076;28;20032;-54